createdAt,value
2022-12-17T00:02:32.970Z,9.10
2022-12-17T00:05:18.469Z,9.20
2022-12-17T00:08:04.126Z,8.23
2022-12-17T00:10:49.676Z,8.37
2022-12-17T00:13:39.989Z,7.93
2022-12-17T00:16:25.476Z,8.03
2022-12-17T00:19:11.165Z,8.30
2022-12-17T00:21:56.630Z,8.20
2022-12-17T00:24:42.215Z,7.63
2022-12-17T00:27:27.903Z,7.93
2022-12-17T00:30:14.407Z,8.83
2022-12-17T00:32:59.845Z,8.67
2022-12-17T00:35:45.219Z,5.93
2022-12-17T00:38:33.265Z,6.33
2022-12-17T00:41:18.935Z,9.13
2022-12-17T00:44:16.044Z,8.30
2022-12-17T00:47:03.125Z,7.37
2022-12-17T00:49:48.699Z,7.70
2022-12-17T00:52:34.298Z,8.60
2022-12-17T00:55:19.842Z,7.43
2022-12-17T00:58:05.364Z,7.93
2022-12-17T01:00:51.043Z,8.13
2022-12-17T01:03:38.859Z,7.93
2022-12-17T01:06:24.673Z,8.07
2022-12-17T01:09:10.354Z,7.00
2022-12-17T01:11:56.427Z,8.17
2022-12-17T01:14:42.448Z,7.40
2022-12-17T01:17:27.893Z,7.60
2022-12-17T01:20:14.478Z,6.90
2022-12-17T01:23:00.148Z,7.80
2022-12-17T01:25:45.582Z,6.93
2022-12-17T01:28:31.177Z,7.17
2022-12-17T01:31:16.944Z,6.80
2022-12-17T01:34:02.416Z,6.97
2022-12-17T01:36:49.140Z,6.40
2022-12-17T01:39:34.697Z,7.07
2022-12-17T01:42:20.187Z,7.70
2022-12-17T01:45:13.828Z,7.27
2022-12-17T01:48:00.889Z,7.60
2022-12-17T01:50:47.442Z,7.63
2022-12-17T01:53:35.465Z,6.77
2022-12-17T01:56:21.134Z,7.07
2022-12-17T01:59:07.296Z,7.53
2022-12-17T02:01:53.077Z,6.23
2022-12-17T02:04:38.625Z,7.23
2022-12-17T02:07:41.328Z,7.87
2022-12-17T02:10:34.771Z,6.43
2022-12-17T02:13:22.770Z,6.80
2022-12-17T02:16:10.310Z,7.27
2022-12-17T02:19:02.040Z,7.83
2022-12-17T02:21:47.714Z,6.80
2022-12-17T02:24:36.094Z,6.43
2022-12-17T02:27:24.734Z,7.23
2022-12-17T02:30:12.379Z,6.37
2022-12-17T02:32:58.465Z,6.67
2022-12-17T02:35:47.983Z,7.77
2022-12-17T02:38:37.022Z,6.30
2022-12-17T02:41:24.153Z,6.70
2022-12-17T02:44:11.950Z,6.90
2022-12-17T02:46:57.839Z,5.97
2022-12-17T02:49:43.427Z,7.00
2022-12-17T02:52:34.587Z,6.60
2022-12-17T02:55:20.542Z,7.57
2022-12-17T02:58:06.211Z,6.43
2022-12-17T03:00:52.956Z,6.20
2022-12-17T03:03:38.890Z,7.00
2022-12-17T03:06:24.697Z,6.53
2022-12-17T03:09:10.261Z,6.43
2022-12-17T03:11:55.820Z,7.73
2022-12-17T03:14:41.282Z,5.70
2022-12-17T03:17:27.774Z,6.00
2022-12-17T03:20:13.470Z,6.27
2022-12-17T03:22:59.124Z,6.87
2022-12-17T03:25:56.094Z,6.67
2022-12-17T03:28:41.151Z,6.97
2022-12-17T03:31:26.767Z,6.27
2022-12-17T03:34:13.521Z,6.07
2022-12-17T03:36:59.111Z,6.37
2022-12-17T03:39:44.649Z,7.73
2022-12-17T03:42:35.584Z,6.73
2022-12-17T03:45:21.093Z,6.13
2022-12-17T03:48:06.580Z,6.87
2022-12-17T03:50:53.356Z,6.33
2022-12-17T03:53:39.095Z,6.50
2022-12-17T03:56:25.567Z,5.77
2022-12-17T03:59:11.241Z,6.33
2022-12-17T04:01:56.875Z,6.23
2022-12-17T04:04:42.614Z,6.00
2022-12-17T04:07:29.138Z,6.67
2022-12-17T04:10:14.694Z,5.37
2022-12-17T04:13:00.219Z,6.33
2022-12-17T04:15:45.860Z,7.10
2022-12-17T04:18:31.585Z,5.47
2022-12-17T04:21:17.079Z,5.63
2022-12-17T04:24:03.585Z,5.10
2022-12-17T04:26:49.311Z,6.27
2022-12-17T04:29:34.742Z,6.80
2022-12-17T04:32:20.354Z,5.47
2022-12-17T04:35:05.936Z,5.57
2022-12-17T04:37:51.450Z,5.17
2022-12-17T04:40:38.198Z,6.60
2022-12-17T04:43:26.806Z,6.23
2022-12-17T04:46:12.646Z,6.00
2022-12-17T04:48:58.521Z,6.40
2022-12-17T04:51:43.778Z,6.43
2022-12-17T04:54:29.318Z,5.93
2022-12-17T04:57:16.119Z,5.50
2022-12-17T05:00:01.662Z,5.67
2022-12-17T05:02:47.468Z,6.40
2022-12-17T05:05:41.403Z,6.30
2022-12-17T05:08:41.813Z,5.63
2022-12-17T05:11:27.194Z,6.50
2022-12-17T05:14:13.820Z,5.47
2022-12-17T05:17:01.646Z,5.90
2022-12-17T05:19:47.036Z,5.53
2022-12-17T05:22:32.656Z,6.53
2022-12-17T05:25:18.126Z,5.77
2022-12-17T05:28:04.772Z,5.70
2022-12-17T05:30:53.892Z,5.73
2022-12-17T05:33:39.528Z,7.07
2022-12-17T05:36:25.540Z,7.00
2022-12-17T05:39:11.288Z,5.80
2022-12-17T05:41:56.741Z,6.90
2022-12-17T05:44:42.379Z,5.93
2022-12-17T05:47:29.130Z,6.23
2022-12-17T05:50:14.685Z,5.90
2022-12-17T05:53:00.252Z,5.57
2022-12-17T05:55:54.362Z,6.40
2022-12-17T05:58:39.898Z,6.53
2022-12-17T06:01:25.535Z,6.50
2022-12-17T06:04:12.115Z,6.40
2022-12-17T06:06:57.677Z,6.43
2022-12-17T06:09:43.237Z,6.50
2022-12-17T06:12:28.758Z,6.07
2022-12-17T06:15:14.019Z,6.37
2022-12-17T06:18:16.317Z,5.40
2022-12-17T06:21:03.483Z,6.17
2022-12-17T06:23:48.927Z,5.70
2022-12-17T06:26:34.634Z,7.23
2022-12-17T06:29:20.111Z,6.10
2022-12-17T06:32:05.779Z,6.40
2022-12-17T06:34:51.303Z,7.37
2022-12-17T06:37:37.991Z,7.30
2022-12-17T06:40:24.377Z,6.67
2022-12-17T06:43:13.059Z,6.80
2022-12-17T06:45:58.577Z,6.73
2022-12-17T06:48:44.399Z,7.07
2022-12-17T06:51:29.984Z,6.73
2022-12-17T06:54:16.746Z,6.77
2022-12-17T06:57:02.549Z,6.90
2022-12-17T06:59:48.110Z,7.07
2022-12-17T07:02:34.005Z,6.97
2022-12-17T07:05:19.434Z,6.93
2022-12-17T07:08:04.936Z,7.20
2022-12-17T07:10:51.727Z,6.47
2022-12-17T07:13:38.167Z,7.23
2022-12-17T07:16:23.756Z,6.67
2022-12-17T07:19:09.666Z,6.50
2022-12-17T07:21:55.221Z,7.60
2022-12-17T07:24:40.835Z,7.17
2022-12-17T07:27:27.343Z,7.97
2022-12-17T07:30:12.941Z,6.18
2022-12-17T07:32:58.563Z,6.03
2022-12-17T07:35:43.864Z,7.53
2022-12-17T07:38:29.506Z,7.50
2022-12-17T07:41:14.965Z,7.13
2022-12-17T07:44:01.698Z,7.63
2022-12-17T07:46:47.353Z,7.97
2022-12-17T07:49:32.894Z,8.17
2022-12-17T07:52:18.605Z,7.40
2022-12-17T07:55:04.072Z,7.87
2022-12-17T07:57:49.586Z,6.83
2022-12-17T08:00:36.314Z,6.70
2022-12-17T08:03:21.791Z,8.33
2022-12-17T08:06:07.674Z,8.53
2022-12-17T08:08:53.445Z,7.40
2022-12-17T08:11:39.509Z,7.40
2022-12-17T08:14:39.673Z,7.70
2022-12-17T08:17:26.243Z,7.43
2022-12-17T08:20:11.596Z,7.53
2022-12-17T08:22:57.272Z,7.70
2022-12-17T08:25:42.808Z,7.73
2022-12-17T08:28:56.968Z,7.00
2022-12-17T08:31:33.772Z,7.20
2022-12-17T08:34:20.373Z,7.97
2022-12-17T08:37:02.116Z,7.15
2022-12-17T08:39:47.471Z,6.25
2022-12-17T08:42:32.928Z,7.15
2022-12-17T08:45:18.386Z,7.33
2022-12-17T08:48:04.499Z,7.67
2022-12-17T08:50:51.517Z,7.17
2022-12-17T08:53:42.676Z,7.60
2022-12-17T08:56:28.515Z,7.57
2022-12-17T08:59:14.101Z,7.63
2022-12-17T09:01:59.939Z,8.20
2022-12-17T09:04:45.280Z,8.40
2022-12-17T09:07:32.097Z,7.87
2022-12-17T09:10:17.499Z,8.33
2022-12-17T09:13:05.156Z,7.47
2022-12-17T09:15:50.819Z,8.43
2022-12-17T09:18:37.262Z,7.73
2022-12-17T09:21:24.429Z,9.60
2022-12-17T09:24:10.951Z,7.03
2022-12-17T09:26:56.377Z,7.97
2022-12-17T09:29:41.924Z,6.87
2022-12-17T09:32:27.430Z,7.50
2022-12-17T09:35:13.030Z,7.10
2022-12-17T09:37:58.698Z,6.67
2022-12-17T09:40:45.317Z,6.77
2022-12-17T09:43:37.159Z,7.87
2022-12-17T09:46:27.462Z,6.27
2022-12-17T09:49:18.338Z,7.50
2022-12-17T09:52:04.099Z,8.70
2022-12-17T09:54:54.031Z,7.50
2022-12-17T09:57:47.104Z,8.37
2022-12-17T10:00:33.061Z,7.00
2022-12-17T10:03:18.877Z,6.33
2022-12-17T10:06:05.520Z,8.00
2022-12-17T10:08:51.019Z,7.20
2022-12-17T10:11:38.127Z,6.77
2022-12-17T10:14:30.492Z,8.07
2022-12-17T10:17:16.011Z,8.03
2022-12-17T10:20:01.445Z,7.27
2022-12-17T10:22:47.040Z,6.97
2022-12-17T10:25:34.053Z,7.30
2022-12-17T10:28:20.258Z,7.97
2022-12-17T10:31:08.156Z,7.70
2022-12-17T10:33:56.344Z,9.07
2022-12-17T10:36:42.808Z,8.50
2022-12-17T10:39:33.941Z,8.83
2022-12-17T10:42:19.591Z,10.27
2022-12-17T10:45:05.157Z,8.80
2022-12-17T10:47:52.187Z,9.33
2022-12-17T10:50:38.788Z,8.40
2022-12-17T10:53:36.700Z,8.57
2022-12-17T10:56:22.552Z,8.37
2022-12-17T10:59:09.003Z,9.57
2022-12-17T11:01:54.269Z,8.80
2022-12-17T11:04:45.250Z,9.40
2022-12-17T11:07:33.293Z,9.00
2022-12-17T11:10:19.707Z,9.00
2022-12-17T11:13:06.814Z,8.30
2022-12-17T11:15:55.066Z,8.80
2022-12-17T11:18:43.275Z,9.57
2022-12-17T11:21:33.383Z,7.77
2022-12-17T11:24:22.750Z,9.13
2022-12-17T11:27:10.472Z,8.57
2022-12-17T11:29:56.144Z,9.57
2022-12-17T11:32:49.877Z,9.70
2022-12-17T11:35:38.401Z,8.90
2022-12-17T11:38:31.953Z,8.97
2022-12-17T11:41:20.036Z,8.47
2022-12-17T11:44:08.052Z,9.00
2022-12-17T11:46:58.310Z,9.47
2022-12-17T11:49:48.013Z,8.27
2022-12-17T11:52:36.287Z,10.13
2022-12-17T11:55:26.993Z,9.17
2022-12-17T11:58:15.118Z,8.90
2022-12-17T12:01:06.636Z,8.73
2022-12-17T12:03:57.127Z,9.20
2022-12-17T12:06:47.798Z,9.03
2022-12-17T12:09:36.484Z,10.07
2022-12-17T12:12:27.928Z,10.67
2022-12-17T12:15:16.608Z,9.37
2022-12-17T12:18:05.100Z,9.50
2022-12-17T12:20:58.578Z,9.10
2022-12-17T12:23:48.570Z,8.43
2022-12-17T12:26:35.673Z,9.50
2022-12-17T12:29:28.167Z,10.17
2022-12-17T12:32:16.682Z,9.80
2022-12-17T12:35:02.957Z,9.17
2022-12-17T12:37:48.461Z,9.43
2022-12-17T12:40:35.680Z,9.43
2022-12-17T12:43:23.898Z,10.43
2022-12-17T12:46:14.211Z,9.33
2022-12-17T12:49:01.601Z,10.10
2022-12-17T12:51:47.968Z,10.13
2022-12-17T12:54:44.007Z,10.33
2022-12-17T12:57:45.347Z,8.63
2022-12-17T13:00:41.143Z,10.27
2022-12-17T13:03:39.380Z,8.83
2022-12-17T13:06:07.889Z,10.03
2022-12-17T13:08:36.350Z,9.60
2022-12-17T13:11:12.148Z,9.00
2022-12-17T13:13:56.239Z,10.03
2022-12-17T13:16:34.476Z,10.30
2022-12-17T13:19:05.680Z,9.77
2022-12-17T13:21:33.715Z,10.13
2022-12-17T13:24:11.679Z,11.70
2022-12-17T13:26:48.410Z,10.07
2022-12-17T13:29:22.811Z,10.03
2022-12-17T13:31:57.847Z,9.83
2022-12-17T13:34:29.050Z,11.27
2022-12-17T13:37:01.274Z,9.30
2022-12-17T13:39:35.044Z,10.67
2022-12-17T13:42:05.617Z,9.80
2022-12-17T13:44:37.370Z,10.40
2022-12-17T13:47:05.783Z,10.83
2022-12-17T13:49:35.184Z,10.57
2022-12-17T13:52:09.589Z,10.37
2022-12-17T13:54:39.445Z,11.30
2022-12-17T13:57:08.608Z,10.53
2022-12-17T13:59:36.549Z,11.10
2022-12-17T14:02:08.019Z,11.07
2022-12-17T14:04:39.175Z,10.13
2022-12-17T14:07:07.468Z,10.70
2022-12-17T14:09:37.645Z,11.57
2022-12-17T14:12:32.265Z,10.53
2022-12-17T14:15:01.430Z,11.03
2022-12-17T14:17:30.353Z,11.37
2022-12-17T14:20:00.863Z,9.63
2022-12-17T14:22:31.775Z,9.67
2022-12-17T14:24:59.872Z,9.97
2022-12-17T14:27:29.024Z,10.73
2022-12-17T14:29:57.125Z,11.43
2022-12-17T14:32:26.922Z,10.43
2022-12-17T14:35:00.374Z,9.87
2022-12-17T14:37:30.693Z,11.03
2022-12-17T14:40:01.906Z,10.63
2022-12-17T14:42:32.924Z,10.50
2022-12-17T14:45:02.271Z,10.73
2022-12-17T14:47:31.040Z,11.13
2022-12-17T14:50:01.427Z,11.43
2022-12-17T14:52:35.007Z,9.43
2022-12-17T14:55:03.029Z,10.63
2022-12-17T14:57:31.005Z,11.43
2022-12-17T14:59:59.249Z,11.27
2022-12-17T15:02:28.702Z,11.33
2022-12-17T15:04:58.692Z,9.90
2022-12-17T15:07:27.560Z,11.47
2022-12-17T15:09:57.385Z,11.37
2022-12-17T15:12:26.269Z,10.63
2022-12-17T15:14:54.252Z,10.87
2022-12-17T15:17:22.168Z,11.13
2022-12-17T15:19:55.715Z,11.80
2022-12-17T15:22:24.518Z,9.97
2022-12-17T15:24:52.527Z,11.07
2022-12-17T15:27:22.020Z,10.93
2022-12-17T15:29:49.983Z,10.63
2022-12-17T15:32:19.671Z,11.43
2022-12-17T15:34:47.891Z,9.93
2022-12-17T15:37:19.772Z,12.27
2022-12-17T15:39:51.265Z,11.13
2022-12-17T15:42:36.594Z,10.57
2022-12-17T15:45:06.544Z,11.63
2022-12-17T15:47:34.554Z,10.17
2022-12-17T15:50:02.580Z,11.40
2022-12-17T15:52:30.535Z,13.00
2022-12-17T15:54:58.613Z,10.13
2022-12-17T15:57:26.738Z,11.67
2022-12-17T15:59:54.737Z,12.03
2022-12-17T16:02:26.535Z,12.57
2022-12-17T16:04:54.660Z,10.97
2022-12-17T16:07:22.634Z,11.67
2022-12-17T16:09:50.560Z,12.33
2022-12-17T16:12:18.558Z,11.43
2022-12-17T16:14:46.524Z,13.37
2022-12-17T16:17:14.570Z,12.30
2022-12-17T16:19:43.985Z,12.17
2022-12-17T16:22:11.964Z,12.93
2022-12-17T16:24:41.082Z,10.50
2022-12-17T16:27:09.034Z,10.23
2022-12-17T16:29:37.032Z,10.77
2022-12-17T16:32:05.140Z,12.17
2022-12-17T16:34:33.117Z,11.20
2022-12-17T16:37:02.473Z,11.63
2022-12-17T16:39:30.468Z,12.43
2022-12-17T16:41:58.434Z,12.87
2022-12-17T16:44:26.586Z,11.30
2022-12-17T16:46:54.575Z,12.67
2022-12-17T16:49:23.506Z,13.30
2022-12-17T16:51:55.237Z,11.53
2022-12-17T16:54:28.520Z,12.60
2022-12-17T16:56:56.817Z,12.23
2022-12-17T16:59:25.337Z,12.57
2022-12-17T17:01:53.679Z,10.57
2022-12-17T17:04:22.773Z,11.83
2022-12-17T17:06:51.494Z,12.13
2022-12-17T17:09:19.610Z,12.33
2022-12-17T17:11:51.722Z,11.63
2022-12-17T17:14:20.314Z,11.90
2022-12-17T17:16:48.296Z,12.60
2022-12-17T17:19:16.475Z,14.90
2022-12-17T17:21:49.116Z,13.63
2022-12-17T17:24:21.421Z,14.00
2022-12-17T17:26:51.919Z,14.10
2022-12-17T17:29:20.096Z,14.97
2022-12-17T17:34:38.903Z,13.10
2022-12-17T17:37:06.828Z,13.13
2022-12-17T17:39:34.851Z,12.60
2022-12-17T17:42:04.390Z,15.13
2022-12-17T17:44:32.383Z,14.00
2022-12-17T17:47:01.825Z,15.53
2022-12-17T17:49:29.849Z,15.47
2022-12-17T17:52:09.371Z,15.40
2022-12-17T17:54:38.391Z,15.73
2022-12-17T17:57:07.955Z,17.10
2022-12-17T17:59:36.334Z,15.93
2022-12-17T18:02:04.887Z,16.83
2022-12-17T18:04:33.089Z,16.30
2022-12-17T18:07:25.338Z,17.67
2022-12-17T18:09:49.245Z,17.30
2022-12-17T18:12:36.133Z,14.80
2022-12-17T18:15:19.565Z,14.77
2022-12-17T18:17:48.222Z,15.10
2022-12-17T18:20:16.785Z,14.57
2022-12-17T18:22:46.827Z,16.17
2022-12-17T18:25:15.420Z,15.30
2022-12-17T18:27:44.939Z,14.93
2022-12-17T18:30:13.696Z,17.30
2022-12-17T18:32:41.694Z,16.73
2022-12-17T18:35:10.267Z,15.77
2022-12-17T18:37:38.758Z,16.37
2022-12-17T18:40:07.414Z,15.87
2022-12-17T18:42:52.972Z,15.70
2022-12-17T18:45:22.448Z,14.30
2022-12-17T18:47:51.432Z,14.93
2022-12-17T18:50:19.542Z,16.20
2022-12-17T18:52:47.591Z,16.83
2022-12-17T18:55:16.706Z,16.77
2022-12-17T18:57:44.792Z,15.53
2022-12-17T19:00:13.527Z,15.77
2022-12-17T19:02:43.092Z,16.10
2022-12-17T19:05:11.202Z,16.70
2022-12-17T19:07:39.239Z,17.40
2022-12-17T19:10:07.728Z,15.53
2022-12-17T19:12:35.987Z,15.63
2022-12-17T19:15:03.954Z,16.00
2022-12-17T19:17:31.910Z,17.20
2022-12-17T19:20:01.355Z,16.63
2022-12-17T19:22:29.485Z,16.87
2022-12-17T19:24:57.505Z,16.43
2022-12-17T19:27:25.875Z,17.10
2022-12-17T19:29:55.131Z,16.17
2022-12-17T19:32:23.734Z,15.83
2022-12-17T19:34:51.948Z,16.30
2022-12-17T19:37:21.388Z,17.17
2022-12-17T19:39:49.355Z,17.40
2022-12-17T19:42:25.666Z,16.20
2022-12-17T19:44:54.424Z,16.87
2022-12-17T19:47:22.701Z,16.53
2022-12-17T19:49:51.050Z,17.43
2022-12-17T19:52:19.125Z,17.67
2022-12-17T19:54:48.489Z,19.87
2022-12-17T19:57:16.491Z,17.27
2022-12-17T19:59:44.475Z,18.40
2022-12-17T20:02:12.756Z,17.80
2022-12-17T20:04:40.885Z,16.87
2022-12-17T20:07:08.840Z,19.57
2022-12-17T20:09:36.836Z,17.07
2022-12-17T20:12:06.475Z,18.57
2022-12-17T20:14:34.466Z,19.00
2022-12-17T20:17:02.806Z,17.57
2022-12-17T20:19:32.445Z,16.70
2022-12-17T20:22:00.982Z,17.70
2022-12-17T20:24:31.600Z,18.07
2022-12-17T20:27:00.318Z,19.37
2022-12-17T20:29:29.999Z,19.17
2022-12-17T20:31:58.048Z,18.43
2022-12-17T20:34:26.388Z,19.47
2022-12-17T20:36:54.845Z,19.10
2022-12-17T20:39:27.002Z,17.93
2022-12-17T20:41:56.270Z,18.93
2022-12-17T20:44:24.405Z,18.97
2022-12-17T20:46:53.830Z,19.57
2022-12-17T20:49:21.894Z,17.70
2022-12-17T20:51:49.993Z,16.60
2022-12-17T20:54:17.969Z,19.50
2022-12-17T20:56:45.975Z,17.73
2022-12-17T20:59:15.687Z,20.00
2022-12-17T21:01:43.750Z,18.13
2022-12-17T21:04:13.671Z,19.50
2022-12-17T21:06:42.671Z,17.63
2022-12-17T21:09:10.749Z,18.90
2022-12-17T21:11:39.470Z,18.43
2022-12-17T21:14:11.208Z,19.23
2022-12-17T21:16:39.839Z,19.63
2022-12-17T21:19:08.343Z,17.20
2022-12-17T21:21:38.794Z,17.50
2022-12-17T21:24:07.096Z,18.10
2022-12-17T21:26:36.333Z,19.57
2022-12-17T21:29:05.511Z,18.13
2022-12-17T21:31:34.251Z,16.57
2022-12-17T21:34:03.463Z,20.10
2022-12-17T21:36:32.844Z,19.77
2022-12-17T21:39:02.571Z,16.40
2022-12-17T21:41:38.508Z,17.33
2022-12-17T21:44:08.159Z,16.43
2022-12-17T21:46:36.304Z,16.30
2022-12-17T21:49:05.333Z,18.90
2022-12-17T21:51:33.675Z,19.40
2022-12-17T21:54:09.049Z,19.23
2022-12-17T21:56:37.522Z,18.20
2022-12-17T21:59:05.680Z,18.50
2022-12-17T22:01:34.993Z,18.63
2022-12-17T22:04:04.357Z,20.17
2022-12-17T22:06:38.385Z,20.57
2022-12-17T22:09:29.041Z,18.63
2022-12-17T22:12:23.593Z,18.53
2022-12-17T22:14:51.747Z,19.13
2022-12-17T22:17:20.494Z,19.47
2022-12-17T22:19:48.502Z,17.43
2022-12-17T22:22:16.417Z,20.17
2022-12-17T22:24:45.827Z,18.67
2022-12-17T22:27:14.052Z,20.70
2022-12-17T22:30:01.880Z,19.80
2022-12-17T22:32:47.321Z,18.23
2022-12-17T22:36:28.094Z,19.20
2022-12-17T22:43:09.598Z,17.50
2022-12-17T22:44:41.006Z,18.70
2022-12-17T22:44:43.119Z,18.30
2022-12-17T22:46:29.249Z,16.93
2022-12-17T22:48:57.636Z,17.27
2022-12-17T22:51:27.069Z,18.17
2022-12-17T22:54:01.643Z,19.43
2022-12-17T22:57:09.282Z,19.33
2022-12-17T22:59:20.040Z,19.03
2022-12-17T23:01:48.156Z,20.90
2022-12-17T23:04:17.231Z,21.23
2022-12-17T23:06:46.462Z,19.13
2022-12-17T23:09:15.003Z,18.53
2022-12-17T23:11:44.569Z,18.37
2022-12-17T23:14:12.559Z,19.77
2022-12-17T23:16:40.650Z,20.00
2022-12-17T23:19:09.381Z,20.07
2022-12-17T23:21:37.362Z,18.73
2022-12-17T23:24:05.852Z,19.70
2022-12-17T23:26:35.480Z,18.03
2022-12-17T23:29:06.366Z,19.33
2022-12-17T23:31:35.434Z,17.53
2022-12-17T23:34:03.734Z,16.43
2022-12-17T23:36:31.968Z,18.40
2022-12-17T23:39:00.407Z,17.00
2022-12-17T23:41:29.519Z,15.90
2022-12-17T23:43:57.883Z,17.60
2022-12-17T23:46:28.185Z,17.43
2022-12-17T23:48:56.393Z,17.00
2022-12-17T23:51:27.980Z,17.33
2022-12-17T23:53:55.978Z,16.60
2022-12-17T23:56:24.988Z,15.37
2022-12-17T23:58:54.015Z,16.00
